Time;durP1;ratioP1;P1;durP2;ratioP2;P2;SDS_P1;SDS_P2;PMS_P1;PMS_P2;Temp;Humidity;BMP_temperature;BMP_pressure;BME280_temperature;BME280_humidity;BME280_pressure;Samples;Min_cycle;Max_cycle;Signal;HPM_P1;HPM_P2
2021/11/30 00:02:16;;;;;;;5.20;4.45;;;21.80;55.50;;;;;;4928693;29;20207;-51
2021/11/30 00:04:46;;;;;;;5.25;4.75;;;21.80;55.40;;;;;;4929474;29;20655;-44
2021/11/30 00:07:17;;;;;;;5.43;3.90;;;21.80;55.60;;;;;;4928963;29;20291;-43
2021/11/30 00:12:34;;;;;;;6.18;4.50;;;21.80;55.90;;;;;;4929859;29;20210;-44
2021/11/30 00:15:07;;;;;;;6.75;4.20;;;21.80;56.00;;;;;;4929962;29;20227;-46
2021/11/30 00:17:38;;;;;;;9.30;4.72;;;21.80;56.00;;;;;;4929325;29;20644;-47
2021/11/30 00:20:10;;;;;;;8.35;4.85;;;21.80;56.10;;;;;;4928390;29;20289;-47
2021/11/30 00:22:40;;;;;;;7.35;4.00;;;21.90;56.10;;;;;;4928037;29;20203;-45
2021/11/30 00:25:11;;;;;;;7.03;4.32;;;21.90;56.00;;;;;;4928730;29;20203;-48
2021/11/30 00:27:42;;;;;;;5.25;3.90;;;21.90;55.90;;;;;;4927850;29;20215;-43
2021/11/30 00:30:16;;;;;;;5.68;3.65;;;21.90;55.90;;;;;;4927576;29;20207;-44
2021/11/30 00:32:47;;;;;;;6.47;4.05;;;21.90;55.80;;;;;;4927854;29;20958;-44
2021/11/30 00:35:18;;;;;;;7.90;3.90;;;21.90;55.90;;;;;;4927638;29;20620;-46
2021/11/30 00:37:48;;;;;;;6.68;3.78;;;21.90;56.00;;;;;;4927886;29;20623;-46
2021/11/30 00:40:19;;;;;;;6.55;3.85;;;21.90;56.10;;;;;;4928657;29;20255;-43
2021/11/30 00:42:50;;;;;;;5.93;3.47;;;21.90;56.20;;;;;;4928013;29;20215;-47
2021/11/30 00:45:24;;;;;;;14.30;4.07;;;21.90;56.40;;;;;;4928683;29;20776;-46
2021/11/30 00:47:55;;;;;;;5.78;3.60;;;21.90;56.60;;;;;;4928428;29;20837;-43
2021/11/30 00:50:27;;;;;;;6.68;3.72;;;21.90;56.50;;;;;;4929383;29;20684;-45
2021/11/30 00:52:59;;;;;;;4.53;3.55;;;21.90;56.50;;;;;;4928834;29;20254;-46
2021/11/30 00:55:30;;;;;;;5.63;3.85;;;21.90;56.50;;;;;;4927753;29;20207;-47
2021/11/30 00:58:00;;;;;;;6.78;3.40;;;21.90;56.50;;;;;;4928817;29;20227;-47
2021/11/30 01:00:35;;;;;;;4.75;3.53;;;22.00;56.50;;;;;;4928772;29;20200;-48
2021/11/30 01:03:08;;;;;;;5.93;3.80;;;22.00;56.50;;;;;;4929622;29;20270;-47
2021/11/30 01:05:39;;;;;;;5.03;3.50;;;22.00;56.40;;;;;;4931219;29;20203;-46
2021/11/30 01:08:10;;;;;;;5.88;3.75;;;22.10;56.40;;;;;;4931635;29;20392;-48
2021/11/30 01:10:41;;;;;;;4.68;3.50;;;22.10;56.30;;;;;;4932958;29;20207;-46
2021/11/30 01:13:11;;;;;;;7.82;3.80;;;22.10;56.30;;;;;;4932670;29;20215;-50
2021/11/30 01:15:44;;;;;;;7.47;3.20;;;22.10;56.20;;;;;;4932684;29;20199;-48
2021/11/30 01:18:15;;;;;;;5.10;3.67;;;22.20;56.20;;;;;;4931198;29;20235;-49
2021/11/30 01:20:46;;;;;;;3.72;3.17;;;22.20;56.20;;;;;;4932138;29;20214;-45
2021/11/30 01:23:17;;;;;;;5.45;3.20;;;22.20;56.10;;;;;;4932547;29;20200;-47
2021/11/30 01:25:47;;;;;;;5.45;3.78;;;22.20;56.10;;;;;;4932875;29;20203;-46
2021/11/30 01:28:18;;;;;;;6.45;3.80;;;22.20;56.10;;;;;;4930881;29;20219;-46
2021/11/30 01:30:51;;;;;;;4.78;3.55;;;22.30;56.10;;;;;;4931238;29;20199;-45
2021/11/30 01:33:22;;;;;;;6.18;3.88;;;22.30;56.00;;;;;;4930638;29;20264;-47
2021/11/30 01:35:54;;;;;;;5.03;3.70;;;22.30;55.90;;;;;;4930668;29;20255;-47
2021/11/30 01:38:26;;;;;;;4.95;3.80;;;22.30;55.80;;;;;;4931526;29;20234;-48
2021/11/30 01:40:58;;;;;;;5.55;3.58;;;22.40;55.70;;;;;;4930554;29;20682;-46
2021/11/30 01:43:37;;;;;;;5.88;3.65;;;22.40;55.70;;;;;;4930148;29;20204;-46
2021/11/30 01:46:11;;;;;;;6.05;3.47;;;22.40;55.70;;;;;;4932352;29;20208;-46
2021/11/30 01:51:31;;;;;;;4.93;4.03;;;22.50;55.70;;;;;;4930765;29;20725;-46
2021/11/30 01:54:02;;;;;;;6.03;3.45;;;22.50;55.60;;;;;;4931415;29;20610;-45
2021/11/30 01:56:33;;;;;;;6.97;3.70;;;22.50;55.50;;;;;;4930201;29;20275;-45
2021/11/30 01:59:04;;;;;;;8.77;3.95;;;22.60;56.10;;;;;;4931022;29;20211;-46
2021/11/30 02:01:36;;;;;;;5.47;4.07;;;22.60;55.40;;;;;;4931991;29;20206;-46
2021/11/30 02:04:07;;;;;;;4.50;3.88;;;22.60;55.40;;;;;;4930849;29;20211;-47
2021/11/30 02:06:37;;;;;;;5.60;3.80;;;22.70;55.40;;;;;;4931233;29;20708;-47
2021/11/30 02:09:08;;;;;;;4.95;3.60;;;22.70;55.30;;;;;;4930782;29;20207;-50
2021/11/30 02:11:39;;;;;;;7.32;3.83;;;22.70;55.30;;;;;;4931233;29;20219;-46
2021/11/30 02:14:10;;;;;;;9.27;3.63;;;22.80;55.30;;;;;;4931336;29;20200;-45
2021/11/30 02:16:42;;;;;;;4.55;3.38;;;22.80;55.30;;;;;;4931484;29;20216;-44
2021/11/30 02:19:13;;;;;;;5.22;3.45;;;22.80;55.30;;;;;;4931403;29;20203;-49
2021/11/30 02:21:45;;;;;;;4.82;3.60;;;22.80;55.20;;;;;;4930856;29;20207;-46
2021/11/30 02:24:16;;;;;;;5.03;4.00;;;22.90;55.20;;;;;;4931309;29;20274;-47
2021/11/30 02:26:47;;;;;;;4.63;3.35;;;22.90;55.10;;;;;;4930296;29;20274;-51
2021/11/30 02:29:17;;;;;;;5.53;3.63;;;22.90;55.10;;;;;;4929459;29;20204;-48
2021/11/30 02:31:50;;;;;;;4.00;3.30;;;23.00;55.10;;;;;;4930649;29;20571;-46
2021/11/30 02:34:20;;;;;;;4.03;3.50;;;23.00;55.10;;;;;;4931460;29;20267;-48
2021/11/30 02:36:54;;;;;;;5.95;3.90;;;23.00;55.00;;;;;;4930516;29;20220;-45
2021/11/30 02:39:26;;;;;;;4.43;3.75;;;23.10;55.00;;;;;;4931613;29;20215;-46
2021/11/30 02:41:58;;;;;;;4.22;3.10;;;23.10;54.90;;;;;;4930255;29;20279;-46
2021/11/30 02:44:29;;;;;;;5.18;3.70;;;23.20;54.80;;;;;;4930489;29;20202;-47
2021/11/30 02:47:01;;;;;;;5.88;3.22;;;23.20;54.80;;;;;;4929454;29;20219;-47
2021/11/30 02:49:33;;;;;;;5.60;3.58;;;23.20;54.70;;;;;;4930352;29;20251;-45
2021/11/30 02:52:12;;;;;;;6.55;3.35;;;23.30;54.70;;;;;;4930260;29;20211;-45
2021/11/30 02:54:45;;;;;;;5.03;4.05;;;23.30;54.70;;;;;;4931456;29;20203;-47
2021/11/30 02:57:18;;;;;;;6.25;3.95;;;23.30;54.60;;;;;;4930198;29;20311;-47
2021/11/30 02:59:53;;;;;;;3.72;3.38;;;23.40;54.60;;;;;;4928598;29;20208;-47
2021/11/30 03:02:25;;;;;;;4.05;3.30;;;23.40;54.60;;;;;;4930652;29;20195;-46
2021/11/30 03:04:57;;;;;;;7.57;3.50;;;23.40;54.50;;;;;;4931023;29;20755;-46
2021/11/30 03:07:35;;;;;;;4.20;3.50;;;23.50;54.50;;;;;;4930078;29;20286;-47
2021/11/30 03:10:07;;;;;;;6.18;3.50;;;23.50;54.50;;;;;;4929041;29;20211;-48
2021/11/30 03:12:38;;;;;;;4.50;3.28;;;23.50;54.40;;;;;;4929226;29;20207;-46
2021/11/30 03:15:14;;;;;;;8.02;3.63;;;23.60;54.40;;;;;;4929354;29;20203;-45
2021/11/30 03:17:45;;;;;;;7.10;3.90;;;23.60;54.40;;;;;;4928301;29;20227;-49
2021/11/30 03:20:16;;;;;;;4.35;3.38;;;23.70;54.40;;;;;;4929415;29;20293;-43
2021/11/30 03:22:48;;;;;;;4.82;3.35;;;23.70;54.30;;;;;;4928903;29;20270;-44
2021/11/30 03:25:20;;;;;;;6.43;2.97;;;23.70;54.20;;;;;;4928715;29;21102;-44
2021/11/30 03:27:50;;;;;;;5.20;2.80;;;23.80;54.10;;;;;;4929852;29;20279;-44
2021/11/30 03:30:22;;;;;;;8.13;2.72;;;23.80;54.00;;;;;;4930222;29;20256;-44
2021/11/30 03:35:39;;;;;;;5.28;2.30;;;23.90;53.40;;;;;;4927962;29;20207;-47
2021/11/30 03:38:12;;;;;;;5.95;2.60;;;23.90;53.30;;;;;;4929468;29;20231;-45
2021/11/30 03:40:42;;;;;;;3.40;2.40;;;23.90;53.20;;;;;;4928991;29;20235;-44
2021/11/30 03:43:13;;;;;;;5.05;2.60;;;23.90;53.30;;;;;;4927840;29;20204;-46
2021/11/30 03:45:43;;;;;;;3.33;2.35;;;24.00;53.40;;;;;;4929225;29;20196;-47
2021/11/30 03:48:14;;;;;;;5.65;2.53;;;24.00;53.30;;;;;;4927785;29;20315;-44
2021/11/30 03:50:45;;;;;;;4.25;2.42;;;24.10;53.30;;;;;;4929828;29;20207;-44
2021/11/30 03:53:17;;;;;;;5.68;2.42;;;24.10;53.20;;;;;;4929094;29;20200;-44
2021/11/30 03:55:48;;;;;;;3.00;2.10;;;24.10;53.20;;;;;;4929111;29;20254;-51
2021/11/30 03:58:19;;;;;;;3.33;2.45;;;24.20;53.00;;;;;;4923286;29;20286;-47
2021/11/30 04:00:50;;;;;;;3.90;2.40;;;24.20;52.80;;;;;;4929125;29;20214;-47
2021/11/30 04:03:22;;;;;;;4.22;1.98;;;24.20;52.80;;;;;;4930184;29;20258;-47
2021/11/30 04:05:52;;;;;;;2.85;2.10;;;24.20;52.70;;;;;;4929011;29;20204;-45
2021/11/30 04:08:25;;;;;;;3.50;2.15;;;24.30;52.60;;;;;;4929696;29;20287;-45
2021/11/30 04:10:56;;;;;;;4.53;1.92;;;24.30;52.40;;;;;;4928886;29;20605;-44
2021/11/30 04:13:26;;;;;;;5.50;2.33;;;24.40;52.30;;;;;;4930737;29;20618;-46
2021/11/30 04:15:57;;;;;;;2.47;1.92;;;24.40;52.30;;;;;;4929927;29;20242;-46
2021/11/30 04:18:28;;;;;;;3.35;1.92;;;24.40;52.10;;;;;;4929863;29;20282;-44
2021/11/30 04:20:58;;;;;;;3.78;2.13;;;24.50;52.00;;;;;;4929010;29;20207;-46
2021/11/30 04:23:31;;;;;;;2.85;1.88;;;24.50;51.90;;;;;;4927634;29;20215;-45
2021/11/30 04:26:01;;;;;;;3.97;2.28;;;24.50;51.80;;;;;;4929044;29;20270;-44
2021/11/30 04:28:32;;;;;;;4.93;2.15;;;24.50;51.70;;;;;;4921300;29;20235;-47
2021/11/30 04:31:03;;;;;;;6.38;2.70;;;24.50;51.70;;;;;;4929161;29;20543;-47
2021/11/30 04:33:33;;;;;;;6.78;2.00;;;24.50;51.50;;;;;;4928470;29;20246;-46
2021/11/30 04:36:06;;;;;;;5.90;2.40;;;24.60;51.50;;;;;;4929407;29;20195;-44
2021/11/30 04:38:40;;;;;;;6.25;2.28;;;24.60;51.40;;;;;;4927466;29;20234;-46
2021/11/30 04:41:11;;;;;;;8.82;2.38;;;24.70;51.40;;;;;;4929439;29;20577;-44
2021/11/30 04:43:42;;;;;;;3.63;1.98;;;24.70;51.30;;;;;;4928135;29;20211;-46
2021/11/30 04:46:17;;;;;;;6.13;2.33;;;24.70;51.20;;;;;;4928641;29;20222;-44
2021/11/30 04:48:54;;;;;;;4.43;2.05;;;24.70;51.20;;;;;;4926186;29;20199;-47
2021/11/30 04:51:28;;;;;;;6.97;2.38;;;24.70;51.30;;;;;;4927550;29;20207;-45
2021/11/30 04:54:02;;;;;;;4.05;2.00;;;24.80;51.10;;;;;;4928386;29;20696;-46
2021/11/30 04:56:33;;;;;;;4.13;1.95;;;24.80;51.00;;;;;;4926306;29;20598;-47
2021/11/30 04:59:04;;;;;;;3.35;2.05;;;24.80;51.00;;;;;;4926597;29;20226;-49
2021/11/30 05:01:35;;;;;;;7.13;2.28;;;24.90;51.10;;;;;;4929077;29;20203;-44
2021/11/30 05:04:06;;;;;;;10.38;3.28;;;24.90;51.20;;;;;;4929350;29;20203;-46
2021/11/30 05:06:36;;;;;;;6.15;2.70;;;24.90;51.10;;;;;;4928524;29;20196;-45
2021/11/30 05:09:09;;;;;;;4.65;2.85;;;24.80;51.00;;;;;;4928011;29;20204;-44
2021/11/30 05:11:42;;;;;;;6.90;3.00;;;24.90;51.10;;;;;;4927647;29;20755;-44
2021/11/30 05:14:12;;;;;;;5.53;2.92;;;24.90;51.10;;;;;;4927755;29;20215;-44
2021/11/30 05:16:43;;;;;;;4.45;2.92;;;24.90;51.10;;;;;;4927837;29;20223;-45
2021/11/30 05:19:14;;;;;;;4.85;3.10;;;24.90;51.10;;;;;;4928327;29;20227;-44
2021/11/30 05:21:44;;;;;;;4.38;2.90;;;24.90;51.20;;;;;;4928323;29;20207;-44
2021/11/30 05:24:19;;;;;;;4.60;2.58;;;24.90;51.20;;;;;;4929043;29;20203;-45
2021/11/30 05:26:53;;;;;;;3.08;2.70;;;24.90;51.20;;;;;;4928722;29;20219;-44
2021/11/30 05:29:26;;;;;;;3.83;2.67;;;24.90;51.30;;;;;;4928517;29;20250;-47
2021/11/30 05:31:57;;;;;;;4.93;2.83;;;24.90;51.30;;;;;;4928136;29;20218;-47
2021/11/30 05:34:28;;;;;;;4.05;2.75;;;24.90;51.30;;;;;;4927780;29;20214;-46
2021/11/30 05:37:00;;;;;;;4.25;2.78;;;24.90;51.40;;;;;;4925407;29;20318;-45
2021/11/30 05:39:33;;;;;;;4.30;2.60;;;24.90;51.40;;;;;;4926465;29;20235;-44
2021/11/30 05:42:06;;;;;;;4.45;2.88;;;24.80;51.30;;;;;;4928223;29;20618;-44
2021/11/30 05:44:40;;;;;;;7.28;3.60;;;24.80;51.30;;;;;;4928747;29;20652;-45
2021/11/30 05:47:14;;;;;;;9.90;3.70;;;24.80;51.20;;;;;;4927240;29;20226;-45
2021/11/30 05:49:45;;;;;;;6.80;3.67;;;24.80;51.30;;;;;;4929036;29;20255;-44
2021/11/30 05:52:15;;;;;;;5.38;3.30;;;24.80;51.80;;;;;;4932424;29;20199;-44
2021/11/30 05:54:48;;;;;;;4.43;3.20;;;24.80;51.20;;;;;;4931212;29;20680;-47
2021/11/30 05:57:21;;;;;;;4.60;3.58;;;24.80;51.20;;;;;;4931071;29;20353;-45
2021/11/30 05:59:53;;;;;;;4.63;2.40;;;24.70;51.20;;;;;;4928451;29;20220;-46
2021/11/30 06:02:23;;;;;;;5.78;3.20;;;24.70;51.20;;;;;;4931260;29;20254;-46
2021/11/30 06:04:54;;;;;;;6.43;3.40;;;24.70;51.20;;;;;;4931696;29;20199;-44
2021/11/30 06:07:25;;;;;;;4.55;2.80;;;24.70;51.20;;;;;;4931010;29;20236;-45
2021/11/30 06:09:57;;;;;;;7.85;3.22;;;24.70;51.20;;;;;;4931211;29;20211;-44
2021/11/30 06:12:28;;;;;;;5.55;3.42;;;24.60;51.20;;;;;;4930405;29;20813;-44
2021/11/30 06:14:59;;;;;;;7.95;3.70;;;24.60;51.20;;;;;;4931321;29;20203;-44
2021/11/30 06:17:29;;;;;;;4.68;3.10;;;24.60;51.30;;;;;;4931332;29;20223;-44
2021/11/30 06:20:05;;;;;;;7.07;3.30;;;24.60;51.30;;;;;;4931308;29;20235;-44
2021/11/30 06:22:36;;;;;;;4.97;2.72;;;24.60;51.40;;;;;;4931164;29;20579;-45
2021/11/30 06:25:09;;;;;;;4.32;2.85;;;24.60;51.40;;;;;;4931170;29;20214;-44
2021/11/30 06:27:41;;;;;;;6.38;3.13;;;24.60;51.40;;;;;;4930704;29;20625;-44
2021/11/30 06:30:12;;;;;;;6.22;3.08;;;24.60;51.40;;;;;;4919823;29;20371;-47
2021/11/30 06:32:43;;;;;;;8.05;3.67;;;24.60;51.40;;;;;;4930260;29;20227;-45
2021/11/30 06:35:15;;;;;;;5.00;2.70;;;24.60;51.30;;;;;;4930853;29;20207;-45
2021/11/30 06:37:46;;;;;;;7.68;3.15;;;24.60;51.20;;;;;;4929232;29;20233;-47
2021/11/30 06:40:18;;;;;;;7.43;2.92;;;24.60;51.10;;;;;;4931038;29;20230;-46
2021/11/30 06:42:49;;;;;;;7.60;3.05;;;24.50;50.90;;;;;;4931082;29;20207;-44
2021/11/30 06:45:19;;;;;;;6.10;3.28;;;24.50;50.90;;;;;;4931462;29;20279;-47
2021/11/30 06:47:50;;;;;;;9.35;3.13;;;24.50;50.90;;;;;;4930845;29;20223;-44
2021/11/30 06:50:22;;;;;;;8.35;3.25;;;24.50;50.80;;;;;;4930817;29;20195;-44
2021/11/30 06:52:53;;;;;;;11.85;4.05;;;24.50;50.70;;;;;;4930161;29;20222;-47
2021/11/30 06:55:26;;;;;;;11.27;4.57;;;24.50;50.70;;;;;;4929870;29;20237;-44
2021/11/30 06:57:57;;;;;;;11.73;4.07;;;24.40;50.70;;;;;;4929575;29;20223;-43
2021/11/30 07:00:28;;;;;;;9.63;3.38;;;24.40;50.70;;;;;;4919785;29;20836;-44
2021/11/30 07:03:05;;;;;;;9.38;3.63;;;24.40;50.70;;;;;;4930216;29;20664;-45
2021/11/30 07:05:39;;;;;;;8.90;3.50;;;24.40;50.70;;;;;;4931826;29;20231;-43
2021/11/30 07:08:17;;;;;;;9.02;3.33;;;24.30;50.70;;;;;;4929366;29;20226;-45
2021/11/30 07:10:52;;;;;;;9.02;3.35;;;24.30;50.70;;;;;;4929672;29;20207;-44
2021/11/30 07:13:26;;;;;;;6.82;3.40;;;24.30;50.70;;;;;;4930224;29;20227;-47
2021/11/30 07:16:01;;;;;;;9.13;3.65;;;24.20;50.70;;;;;;4930713;29;20213;-44
2021/11/30 07:18:33;;;;;;;8.43;3.40;;;24.30;50.70;;;;;;4929994;29;20231;-44
2021/11/30 07:21:05;;;;;;;10.10;3.50;;;24.20;50.70;;;;;;4930048;29;20200;-44
2021/11/30 07:23:35;;;;;;;9.77;3.40;;;24.20;50.60;;;;;;4931121;29;20768;-45
2021/11/30 07:26:08;;;;;;;10.55;3.75;;;24.20;50.60;;;;;;4931337;29;20207;-44
2021/11/30 07:28:39;;;;;;;9.48;3.75;;;24.20;50.60;;;;;;4930771;29;20282;-44
2021/11/30 07:31:12;;;;;;;13.20;3.55;;;24.10;50.60;;;;;;4930069;29;20604;-44
2021/11/30 07:33:44;;;;;;;8.25;3.60;;;24.10;50.60;;;;;;4924467;29;20219;-47
2021/11/30 07:36:16;;;;;;;10.88;3.80;;;24.00;50.60;;;;;;4929218;29;20207;-46
2021/11/30 07:38:48;;;;;;;11.05;3.20;;;24.00;50.60;;;;;;4929202;29;20204;-47
2021/11/30 07:41:23;;;;;;;12.95;3.97;;;24.00;50.60;;;;;;4930402;29;20211;-46
2021/11/30 07:43:53;;;;;;;8.25;3.10;;;24.00;50.70;;;;;;4929400;29;20207;-45
2021/11/30 07:46:24;;;;;;;10.98;3.70;;;23.90;50.70;;;;;;4929647;29;20610;-44
2021/11/30 07:48:55;;;;;;;6.45;2.80;;;23.90;50.70;;;;;;4930025;29;20204;-45
2021/11/30 07:51:26;;;;;;;9.88;2.90;;;23.80;50.70;;;;;;4928874;29;20195;-44
2021/11/30 07:53:56;;;;;;;12.52;4.00;;;23.80;50.80;;;;;;4930221;29;20207;-46
2021/11/30 07:56:33;;;;;;;16.02;3.85;;;23.80;50.90;;;;;;4929091;29;20223;-46
2021/11/30 07:59:05;;;;;;;8.48;2.80;;;23.80;51.00;;;;;;4928605;29;20211;-49
2021/11/30 08:01:35;;;;;;;11.07;2.70;;;23.70;51.00;;;;;;4930776;29;20207;-47
2021/11/30 08:04:09;;;;;;;12.93;3.63;;;23.70;51.10;;;;;;4918828;29;20207;-47
2021/11/30 08:06:39;;;;;;;13.70;3.38;;;23.70;51.10;;;;;;4928603;29;20229;-44
2021/11/30 08:09:10;;;;;;;12.85;3.08;;;23.70;51.20;;;;;;4929143;29;20206;-47
2021/11/30 08:11:43;;;;;;;10.23;3.00;;;23.70;51.20;;;;;;4929161;29;20203;-44
2021/11/30 08:14:15;;;;;;;12.38;3.03;;;23.70;51.30;;;;;;4930062;29;20588;-46
2021/11/30 08:16:46;;;;;;;9.95;2.80;;;23.70;51.30;;;;;;4929719;29;20211;-44
2021/11/30 08:19:17;;;;;;;10.75;3.08;;;23.60;51.20;;;;;;4929653;29;20781;-45
2021/11/30 08:21:48;;;;;;;12.73;3.00;;;23.60;51.30;;;;;;4929370;29;20206;-50
2021/11/30 08:24:19;;;;;;;12.07;2.80;;;23.60;51.30;;;;;;4928233;29;20195;-46
2021/11/30 08:26:52;;;;;;;6.20;2.42;;;23.50;51.30;;;;;;4928735;29;20733;-45
2021/11/30 08:29:23;;;;;;;8.27;2.88;;;23.50;51.30;;;;;;4927759;29;20212;-45
2021/11/30 08:31:53;;;;;;;10.18;3.22;;;23.50;51.30;;;;;;4929337;29;20207;-44
2021/11/30 08:34:24;;;;;;;8.60;2.88;;;23.50;51.30;;;;;;4927998;29;20208;-48
2021/11/30 08:36:55;;;;;;;7.82;2.80;;;23.50;51.40;;;;;;4929304;29;20227;-45
2021/11/30 08:39:25;;;;;;;10.45;2.65;;;23.50;51.40;;;;;;4927603;29;20231;-45
2021/11/30 08:42:04;;;;;;;8.95;3.10;;;23.50;51.40;;;;;;4928941;29;20622;-45
2021/11/30 08:44:35;;;;;;;7.85;2.72;;;23.50;51.40;;;;;;4929070;29;20199;-47
2021/11/30 08:47:07;;;;;;;8.55;2.63;;;23.50;51.40;;;;;;4929280;29;20219;-48
2021/11/30 08:49:41;;;;;;;7.20;2.90;;;23.40;51.40;;;;;;4929629;29;20629;-45
2021/11/30 08:52:15;;;;;;;8.82;2.72;;;23.40;51.40;;;;;;4928411;29;20210;-46
2021/11/30 08:54:47;;;;;;;6.20;2.72;;;23.40;51.40;;;;;;4927614;29;20561;-45
2021/11/30 08:57:19;;;;;;;5.43;2.38;;;23.40;52.00;;;;;;4928678;29;20640;-45
2021/11/30 08:59:50;;;;;;;6.57;2.78;;;23.40;51.50;;;;;;4926978;29;20271;-46
2021/11/30 09:02:21;;;;;;;7.82;2.53;;;23.40;51.50;;;;;;4929235;29;20199;-47
2021/11/30 09:04:53;;;;;;;5.22;2.35;;;23.40;51.50;;;;;;4929567;29;20739;-45
2021/11/30 09:07:24;;;;;;;7.28;2.50;;;23.30;51.50;;;;;;4929213;29;20310;-45
2021/11/30 09:09:55;;;;;;;6.95;2.50;;;23.30;51.50;;;;;;4928219;29;20258;-45
2021/11/30 09:12:28;;;;;;;8.77;2.55;;;23.30;51.50;;;;;;4926717;29;20215;-46
2021/11/30 09:14:58;;;;;;;5.40;2.60;;;23.30;51.60;;;;;;4928257;29;20205;-47
2021/11/30 09:17:30;;;;;;;5.03;2.28;;;23.30;51.60;;;;;;4927730;29;20282;-47
2021/11/30 09:20:02;;;;;;;7.28;2.47;;;23.30;51.60;;;;;;4927594;29;20237;-45
2021/11/30 09:22:33;;;;;;;6.40;2.45;;;23.30;51.60;;;;;;4927562;29;20232;-42
2021/11/30 09:25:04;;;;;;;4.03;2.20;;;23.20;51.60;;;;;;4929994;29;20255;-43
2021/11/30 09:27:37;;;;;;;4.43;2.38;;;23.20;51.60;;;;;;4932489;29;20216;-42
2021/11/30 09:30:11;;;;;;;4.90;2.30;;;23.20;51.60;;;;;;4931004;29;20195;-42
2021/11/30 09:32:41;;;;;;;6.70;2.50;;;23.20;51.60;;;;;;4931513;29;20207;-42
2021/11/30 09:35:14;;;;;;;6.03;2.50;;;23.20;51.60;;;;;;4931241;29;20723;-44
2021/11/30 09:37:46;;;;;;;4.35;2.00;;;23.20;51.60;;;;;;4930819;29;20676;-42
2021/11/30 09:40:20;;;;;;;6.60;2.40;;;23.20;51.60;;;;;;4931153;29;20731;-42
2021/11/30 09:42:53;;;;;;;5.53;2.20;;;23.20;51.60;;;;;;4931562;29;20754;-43
2021/11/30 09:45:24;;;;;;;5.15;2.28;;;23.10;51.60;;;;;;4930024;29;20640;-44
2021/11/30 09:47:55;;;;;;;6.80;2.47;;;23.10;51.70;;;;;;4932293;29;20638;-45
2021/11/30 09:50:27;;;;;;;7.07;2.40;;;23.10;51.70;;;;;;4932266;29;20211;-45
2021/11/30 09:52:58;;;;;;;4.97;2.40;;;23.10;51.80;;;;;;4930278;29;20203;-43
2021/11/30 09:55:29;;;;;;;6.25;2.25;;;23.00;51.70;;;;;;4932208;29;20207;-43
2021/11/30 09:58:01;;;;;;;5.07;2.30;;;23.00;51.70;;;;;;4931501;29;20585;-45
2021/11/30 10:00:33;;;;;;;3.80;2.28;;;23.00;51.70;;;;;;4931227;29;20286;-45
2021/11/30 10:03:04;;;;;;;5.28;2.25;;;23.00;51.70;;;;;;4931558;29;20556;-45
2021/11/30 10:05:35;;;;;;;4.88;2.03;;;23.00;51.70;;;;;;4930454;29;20672;-45
2021/11/30 10:08:06;;;;;;;3.78;1.75;;;22.90;51.70;;;;;;4930846;29;20295;-43
2021/11/30 10:10:42;;;;;;;4.32;2.47;;;23.00;51.70;;;;;;4930903;29;20251;-42
2021/11/30 10:13:15;;;;;;;5.32;2.50;;;23.00;51.80;;;;;;4931679;29;20211;-44
2021/11/30 10:16:01;;;;;;;4.43;2.28;;;22.90;51.70;;;;;;4933013;29;20203;-45
2021/11/30 10:18:33;;;;;;;3.75;1.88;;;22.90;51.80;;;;;;4930472;29;20294;-47
2021/11/30 10:21:23;;;;;;;2.75;2.13;;;22.90;51.70;;;;;;4931540;29;20687;-46
2021/11/30 10:23:59;;;;;;;4.93;1.90;;;22.90;51.70;;;;;;4931396;29;20258;-45
2021/11/30 10:26:31;;;;;;;3.42;1.80;;;22.90;51.80;;;;;;4930580;29;20298;-45
2021/11/30 10:29:06;;;;;;;3.20;1.80;;;22.90;51.80;;;;;;4931928;29;20707;-45
2021/11/30 10:31:38;;;;;;;3.67;2.20;;;22.90;51.80;;;;;;4931504;29;20207;-43
2021/11/30 10:34:18;;;;;;;4.28;2.35;;;22.80;51.80;;;;;;4930549;29;20670;-44
2021/11/30 10:36:52;;;;;;;5.15;2.10;;;22.80;51.90;;;;;;4929859;29;20286;-47
2021/11/30 10:39:24;;;;;;;5.05;2.55;;;22.80;51.90;;;;;;4931039;29;20235;-44
2021/11/30 10:41:55;;;;;;;3.08;1.88;;;22.80;51.90;;;;;;4930048;29;20275;-43
2021/11/30 10:44:35;;;;;;;4.65;2.17;;;22.70;51.90;;;;;;4926913;29;20195;-44
2021/11/30 10:47:14;;;;;;;3.75;2.17;;;22.70;51.90;;;;;;4930928;29;20214;-43
2021/11/30 10:49:50;;;;;;;3.22;1.77;;;22.70;51.90;;;;;;4931681;29;20258;-47
2021/11/30 10:52:23;;;;;;;3.35;2.10;;;22.70;51.90;;;;;;4931267;29;20200;-47
2021/11/30 10:55:04;;;;;;;3.72;1.88;;;22.70;51.90;;;;;;4930452;29;20795;-46
2021/11/30 10:57:36;;;;;;;5.93;2.13;;;22.70;51.90;;;;;;4930768;29;20594;-46
2021/11/30 11:00:19;;;;;;;3.38;1.48;;;22.70;51.90;;;;;;4929932;29;20578;-43
2021/11/30 11:02:54;;;;;;;3.80;1.90;;;22.60;51.90;;;;;;4929998;29;20204;-44
2021/11/30 11:05:27;;;;;;;2.95;1.80;;;22.70;51.90;;;;;;4930777;29;20599;-43
2021/11/30 11:08:10;;;;;;;2.97;1.75;;;22.70;51.90;;;;;;4929764;29;20224;-43
2021/11/30 11:10:44;;;;;;;2.83;1.83;;;22.60;51.90;;;;;;4930063;29;20672;-44
2021/11/30 11:13:23;;;;;;;3.30;2.00;;;22.60;51.90;;;;;;4932490;29;20262;-43
2021/11/30 11:15:57;;;;;;;2.80;1.90;;;22.60;51.90;;;;;;4919960;29;20271;-44
2021/11/30 11:18:31;;;;;;;4.18;1.95;;;22.50;52.00;;;;;;4923571;29;20220;-43
2021/11/30 11:21:17;;;;;;;3.42;2.00;;;22.50;52.00;;;;;;4923367;29;20754;-45
2021/11/30 11:23:49;;;;;;;3.40;1.88;;;22.50;52.00;;;;;;4922247;29;20196;-43
2021/11/30 11:26:25;;;;;;;2.95;1.77;;;22.50;52.00;;;;;;4925376;29;20204;-43
2021/11/30 11:28:57;;;;;;;3.70;1.70;;;22.50;52.00;;;;;;4923419;29;20263;-44
2021/11/30 11:31:31;;;;;;;3.80;1.95;;;22.50;52.00;;;;;;4924572;29;20259;-42
2021/11/30 11:34:03;;;;;;;3.08;1.70;;;22.40;52.00;;;;;;4924545;29;20846;-43
2021/11/30 11:36:34;;;;;;;2.38;1.73;;;22.40;52.00;;;;;;4923045;29;20204;-42
2021/11/30 11:39:05;;;;;;;3.97;1.85;;;22.40;52.00;;;;;;4923758;29;20270;-46
2021/11/30 11:41:36;;;;;;;2.25;1.50;;;22.40;52.00;;;;;;4923443;29;20224;-45
2021/11/30 11:44:07;;;;;;;3.17;1.65;;;22.40;52.00;;;;;;4921531;29;20270;-45
2021/11/30 11:46:41;;;;;;;2.55;1.65;;;22.40;52.00;;;;;;4919916;29;20215;-46
2021/11/30 11:49:14;;;;;;;2.28;1.73;;;22.40;52.00;;;;;;4931379;29;20204;-42
2021/11/30 11:51:47;;;;;;;3.25;1.88;;;22.40;52.00;;;;;;4917537;29;20209;-43
2021/11/30 11:54:28;;;;;;;3.22;1.48;;;22.30;52.00;;;;;;4929841;29;20254;-45
2021/11/30 11:57:00;;;;;;;2.00;1.38;;;22.30;52.00;;;;;;4930623;29;20226;-42
2021/11/30 11:59:35;;;;;;;3.38;1.90;;;22.30;52.00;;;;;;4925824;29;20251;-42
2021/11/30 12:02:22;;;;;;;3.33;1.73;;;22.30;52.00;;;;;;4925774;29;20946;-42
2021/11/30 12:04:55;;;;;;;3.25;1.67;;;22.20;52.00;;;;;;4929071;29;20255;-45
2021/11/30 12:07:27;;;;;;;3.55;1.90;;;22.20;52.70;;;;;;4925656;29;20216;-42
2021/11/30 12:10:18;;;;;;;3.05;1.85;;;22.20;52.10;;;;;;4917217;29;20263;-42
2021/11/30 12:13:19;;;;;;;4.18;1.90;;;22.20;52.10;;;;;;4929961;29;20200;-43
2021/11/30 12:16:02;;;;;;;2.80;1.70;;;22.20;52.10;;;;;;4930073;29;20306;-42
2021/11/30 12:18:40;;;;;;;3.10;1.60;;;22.10;52.10;;;;;;4928030;29;20265;-46
2021/11/30 12:21:16;;;;;;;3.03;1.63;;;22.10;52.10;;;;;;4918061;29;20219;-44
2021/11/30 12:23:48;;;;;;;1.77;1.60;;;22.10;52.10;;;;;;4916451;29;20199;-44
2021/11/30 12:26:34;;;;;;;3.00;1.52;;;22.10;52.10;;;;;;4915539;29;20204;-42
2021/11/30 12:29:07;;;;;;;3.38;1.90;;;22.10;52.10;;;;;;4928832;29;20614;-49
2021/11/30 12:31:39;;;;;;;2.85;1.70;;;22.00;52.10;;;;;;4930023;29;20792;-43
2021/11/30 12:34:12;;;;;;;2.95;1.73;;;22.00;52.10;;;;;;4917376;29;20204;-43
2021/11/30 12:36:44;;;;;;;2.00;1.50;;;22.00;52.10;;;;;;4928651;29;20294;-42
2021/11/30 12:39:16;;;;;;;2.15;1.45;;;22.00;52.10;;;;;;4929088;29;20912;-45
2021/11/30 12:41:50;;;;;;;3.03;1.80;;;22.00;52.10;;;;;;4922865;29;20224;-43
2021/11/30 12:44:22;;;;;;;2.97;1.60;;;21.90;52.10;;;;;;4929272;29;20199;-43
2021/11/30 12:46:54;;;;;;;2.17;1.33;;;22.00;52.20;;;;;;4928695;29;20231;-48
2021/11/30 12:49:37;;;;;;;1.92;1.38;;;21.90;52.20;;;;;;4917284;29;20230;-46
2021/11/30 12:52:13;;;;;;;2.55;1.50;;;21.90;52.20;;;;;;4929820;29;20207;-44
2021/11/30 12:54:46;;;;;;;2.70;1.40;;;21.80;52.80;;;;;;4914470;29;20204;-42
2021/11/30 12:57:20;;;;;;;3.35;1.40;;;21.90;52.20;;;;;;4929247;29;20302;-45
2021/11/30 13:00:10;;;;;;;2.35;1.30;;;21.80;52.10;;;;;;4929257;29;20199;-42
2021/11/30 13:02:42;;;;;;;2.15;1.40;;;21.80;52.20;;;;;;4934077;29;20338;-44
2021/11/30 13:05:29;;;;;;;2.38;1.40;;;21.80;52.20;;;;;;4933684;29;20207;-43
2021/11/30 13:08:11;;;;;;;2.20;1.30;;;21.80;52.10;;;;;;4921655;29;20232;-45
2021/11/30 13:10:47;;;;;;;1.50;1.30;;;21.70;52.10;;;;;;4920514;29;20223;-43
2021/11/30 13:13:20;;;;;;;2.70;1.50;;;21.70;52.10;;;;;;4928270;29;20210;-44
2021/11/30 13:15:54;;;;;;;2.60;1.70;;;21.70;52.20;;;;;;4932853;29;20255;-43
2021/11/30 13:18:25;;;;;;;1.52;1.25;;;21.70;52.20;;;;;;4932282;29;20320;-43
2021/11/30 13:20:58;;;;;;;3.03;1.40;;;21.70;52.20;;;;;;4931238;29;20215;-43
2021/11/30 13:23:30;;;;;;;2.25;1.50;;;21.60;52.20;;;;;;4932397;29;20615;-45